Time;durP1;ratioP1;P1;durP2;ratioP2;P2;SDS_P1;SDS_P2;PMS_P1;PMS_P2;Temp;Humidity;BMP_temperature;BMP_pressure;BME280_temperature;BME280_humidity;BME280_pressure;Samples;Min_cycle;Max_cycle;Signal;HPM_P1;HPM_P2
2023/08/09 00:02:31;;;;;;;4.18;2.35;;;;;;;18.88;47.26;99586.38;10358777;28;20236;-39
2023/08/09 00:07:33;;;;;;;3.87;2.00;;;;;;;19.32;47.21;99505.22;10352642;28;20660;-39
2023/08/09 00:12:35;;;;;;;2.10;1.90;;;;;;;19.18;47.37;99537.25;10357572;28;20299;-39
2023/08/09 00:17:37;;;;;;;3.77;2.07;;;;;;;19.40;47.93;99493.94;10364595;28;20318;-39
2023/08/09 00:22:39;;;;;;;2.97;2.30;;;;;;;18.18;49.38;99520.59;10357927;28;20225;-39
2023/08/09 00:27:42;;;;;;;2.17;2.07;;;;;;;19.32;47.37;99522.31;10356457;28;20236;-39
2023/08/09 00:32:44;;;;;;;2.27;1.87;;;;;;;19.38;47.34;99498.78;10362107;28;20653;-39
2023/08/09 00:37:46;;;;;;;5.22;2.08;;;;;;;19.29;47.52;99540.97;10356404;28;20242;-38
2023/08/09 00:42:48;;;;;;;2.87;2.10;;;;;;;19.51;47.43;99505.72;10362127;28;20241;-39
2023/08/09 00:47:51;;;;;;;2.50;1.90;;;;;;;19.05;47.71;99526.75;10359827;28;20260;-39
2023/08/09 00:52:54;;;;;;;1.77;1.60;;;;;;;18.39;48.47;99571.41;10362644;28;20229;-39
2023/08/09 00:57:56;;;;;;;2.00;1.77;;;;;;;18.57;48.28;99535.16;10359422;28;20308;-39
2023/08/09 01:02:59;;;;;;;2.20;1.77;;;;;;;18.79;48.34;99497.34;10360077;28;20609;-39
2023/08/09 01:08:16;;;;;;;2.47;2.20;;;;;;;18.14;49.49;99554.66;10363081;28;20315;-39
2023/08/09 01:13:19;;;;;;;2.67;2.10;;;;;;;18.56;48.75;99519.97;10363949;28;20228;-39
2023/08/09 01:18:21;;;;;;;2.23;2.03;;;;;;;18.96;48.51;99502.78;10359637;28;20980;-39
2023/08/09 01:23:32;;;;;;;3.50;1.87;;;;;;;19.53;47.24;99531.53;10362687;28;20240;-40
2023/08/09 01:28:35;;;;;;;4.40;2.20;;;;;;;18.55;48.38;99585.25;10360357;28;20614;-39
2023/08/09 01:33:37;;;;;;;4.03;1.80;;;;;;;18.04;49.77;99568.78;10360614;28;20240;-40
2023/08/09 01:38:45;;;;;;;2.23;1.80;;;;;;;18.87;47.63;99573.88;10354049;28;20245;-39
2023/08/09 01:43:47;;;;;;;2.23;1.83;;;;;;;18.71;47.74;99567.38;10359089;28;20233;-38
2023/08/09 01:48:49;;;;;;;3.07;2.00;;;;;;;19.29;46.97;99582.47;10359367;28;20257;-40
2023/08/09 01:53:51;;;;;;;4.10;1.80;;;;;;;18.39;48.59;99614.75;10360956;28;21001;-39
2023/08/09 01:58:53;;;;;;;3.73;1.80;;;;;;;17.66;50.22;99611.56;10359160;28;20248;-39
2023/08/09 02:03:55;;;;;;;2.57;1.90;;;;;;;18.42;48.90;99581.78;10359004;28;20229;-39
2023/08/09 02:08:57;;;;;;;3.20;2.10;;;;;;;18.87;48.33;99541.34;10361877;28;20248;-38
2023/08/09 02:13:58;;;;;;;2.03;1.80;;;;;;;18.93;47.98;99529.53;10362916;28;20283;-39
2023/08/09 02:19:00;;;;;;;2.23;1.80;;;;;;;18.44;48.78;99573.41;10362802;28;20256;-38
2023/08/09 02:24:02;;;;;;;3.00;2.00;;;;;;;19.33;47.23;99571.94;10359444;28;20232;-39
2023/08/09 02:29:04;;;;;;;1.97;1.77;;;;;;;19.53;47.09;99550.53;10356959;28;20648;-39
2023/08/09 02:34:06;;;;;;;2.37;2.07;;;;;;;20.01;46.15;99566.38;10354345;28;20715;-39
2023/08/09 02:39:07;;;;;;;3.87;2.13;;;;;;;19.18;47.33;99613.19;10360319;28;20621;-39
2023/08/09 02:44:09;;;;;;;2.47;2.20;;;;;;;18.86;48.16;99624.59;10358860;28;20241;-39
2023/08/09 02:49:11;;;;;;;3.27;2.23;;;;;;;18.63;48.87;99620.91;10355199;28;20235;-39
2023/08/09 02:54:13;;;;;;;2.83;2.13;;;;;;;19.38;48.10;99536.75;10362412;28;20730;-39
2023/08/09 02:59:15;;;;;;;3.47;2.60;;;;;;;18.63;48.93;99571.31;10355613;28;20715;-39
2023/08/09 03:04:16;;;;;;;2.73;2.00;;;;;;;18.36;49.22;99650.44;10357674;28;20233;-39
2023/08/09 03:09:18;;;;;;;3.17;2.57;;;;;;;19.44;47.83;99575.66;10360172;28;20233;-39
2023/08/09 03:14:20;;;;;;;3.03;2.17;;;;;;;19.36;47.83;99620.28;10360116;28;20299;-39
2023/08/09 03:19:22;;;;;;;3.10;2.17;;;;;;;19.22;47.35;99682.19;10359272;28;20320;-39
2023/08/09 03:24:24;;;;;;;2.40;2.20;;;;;;;19.63;47.71;99597.94;10358111;28;20309;-39
2023/08/09 03:29:26;;;;;;;2.20;2.00;;;;;;;18.95;48.16;99666.50;10356441;28;20237;-39
2023/08/09 03:34:28;;;;;;;4.53;2.37;;;;;;;19.57;47.09;99695.56;10355389;28;20236;-39
2023/08/09 03:39:31;;;;;;;5.70;2.23;;;;;;;17.91;50.52;99678.97;10357170;28;20241;-39
2023/08/09 03:44:33;;;;;;;4.40;2.33;;;;;;;17.89;50.21;99704.63;10359394;28;20316;-39
2023/08/09 03:49:35;;;;;;;5.27;2.40;;;;;;;18.50;49.35;99628.50;10369793;28;20311;-39
2023/08/09 03:54:36;;;;;;;3.07;2.23;;;;;;;18.49;49.66;99634.97;10364787;28;20637;-39
2023/08/09 03:59:38;;;;;;;2.90;2.30;;;;;;;19.02;48.54;99590.44;10363556;28;20226;-39
2023/08/09 04:04:40;;;;;;;3.27;2.30;;;;;;;17.34;51.72;99657.84;10364303;28;20237;-39
2023/08/09 04:09:42;;;;;;;2.33;2.10;;;;;;;18.24;50.14;99598.19;10363332;28;20594;-39
2023/08/09 04:14:44;;;;;;;4.23;2.30;;;;;;;19.06;49.01;99553.63;10366361;28;20222;-39
2023/08/09 04:19:46;;;;;;;3.23;2.30;;;;;;;18.63;49.50;99623.59;10358965;28;20245;-39
2023/08/09 04:24:48;;;;;;;4.03;2.60;;;;;;;18.14;50.12;99658.34;10363730;28;20247;-39
2023/08/09 04:29:51;;;;;;;2.43;2.23;;;;;;;18.62;49.28;99643.66;10362680;28;20229;-39
2023/08/09 04:34:52;;;;;;;2.83;2.20;;;;;;;19.18;48.00;99653.88;10363655;28;20236;-39
2023/08/09 04:39:55;;;;;;;4.67;2.50;;;;;;;18.81;49.19;99619.88;10365403;28;20244;-38
2023/08/09 04:44:57;;;;;;;3.27;2.30;;;;;;;18.36;49.51;99696.50;10370440;28;20229;-39
2023/08/09 04:49:59;;;;;;;3.13;2.23;;;;;;;19.11;48.56;99645.91;10359879;28;20642;-38
2023/08/09 04:55:03;;;;;;;3.53;2.40;;;;;;;18.31;50.14;99692.88;10361345;28;20240;-40
2023/08/09 05:00:10;;;;;;;3.33;2.60;;;;;;;18.46;50.21;99633.59;10360049;28;20683;-40
2023/08/09 05:05:12;;;;;;;2.77;2.50;;;;;;;17.84;51.26;99680.97;10359627;28;20237;-38
2023/08/09 05:10:14;;;;;;;2.83;2.27;;;;;;;18.13;50.20;99704.63;10357286;28;20232;-38
2023/08/09 05:15:16;;;;;;;2.50;2.20;;;;;;;18.17;50.59;99657.03;10358091;28;20244;-38
2023/08/09 05:20:17;;;;;;;6.63;2.40;;;;;;;18.12;50.34;99659.63;10356588;28;20233;-38
2023/08/09 05:25:19;;;;;;;2.73;2.00;;;;;;;18.69;49.83;99613.69;10360090;28;20826;-38
2023/08/09 05:30:22;;;;;;;3.03;2.27;;;;;;;17.99;50.91;99685.91;10357012;28;20998;-38
2023/08/09 05:35:26;;;;;;;2.97;2.40;;;;;;;18.82;49.57;99635.06;10353282;28;20241;-38
2023/08/09 05:40:28;;;;;;;3.10;2.47;;;;;;;19.12;49.02;99638.63;10355250;28;20867;-39
2023/08/09 05:45:30;;;;;;;6.63;2.30;;;;;;;18.67;49.72;99690.88;10355105;28;20282;-38
2023/08/09 05:50:32;;;;;;;4.00;2.50;;;;;;;19.00;49.44;99636.78;10356586;28;20645;-37
2023/08/09 05:55:34;;;;;;;3.80;2.37;;;;;;;19.24;49.26;99627.69;10356172;28;20233;-38
2023/08/09 06:00:37;;;;;;;4.00;2.50;;;;;;;18.88;49.70;99644.13;10355326;28;20225;-38
2023/08/09 06:05:39;;;;;;;2.40;2.17;;;;;;;19.06;49.32;99626.84;10352757;28;20245;-38
2023/08/09 06:10:41;;;;;;;2.63;2.10;;;;;;;18.83;49.50;99654.88;10355729;28;20217;-38
2023/08/09 06:15:43;;;;;;;3.33;2.30;;;;;;;18.60;49.60;99701.84;10353784;28;20234;-39
2023/08/09 06:20:45;;;;;;;3.10;2.50;;;;;;;19.14;48.59;99691.53;10352231;28;20249;-38
2023/08/09 06:25:49;;;;;;;4.50;2.37;;;;;;;19.24;48.61;99700.94;10354461;28;20236;-38
2023/08/09 06:30:51;;;;;;;3.03;2.07;;;;;;;19.73;47.80;99663.22;10352321;28;20225;-38
2023/08/09 06:35:53;;;;;;;4.63;2.40;;;;;;;19.13;48.69;99741.44;10352305;28;21182;-38
2023/08/09 06:40:54;;;;;;;2.37;2.03;;;;;;;19.11;48.40;99756.28;10356062;28;20711;-38
2023/08/09 06:46:00;;;;;;;2.17;1.90;;;;;;;18.11;50.39;99772.53;10354046;28;20267;-38
2023/08/09 06:51:02;;;;;;;2.40;2.20;;;;;;;18.61;49.67;99744.16;10348580;28;20240;-38
2023/08/09 06:56:04;;;;;;;2.60;2.10;;;;;;;18.62;49.78;99722.25;10357864;28;20225;-38
2023/08/09 07:01:09;;;;;;;3.93;1.83;;;;;;;18.62;50.02;99738.50;10352597;28;20213;-38
2023/08/09 07:06:11;;;;;;;2.70;2.03;;;;;;;19.14;48.62;99739.53;10349893;28;20257;-39
2023/08/09 07:11:13;;;;;;;3.80;2.07;;;;;;;18.67;49.16;99780.31;10349147;28;20245;-38
2023/08/09 07:16:15;;;;;;;3.50;2.35;;;;;;;18.33;49.75;99761.16;10352244;28;20233;-38
2023/08/09 07:21:17;;;;;;;3.27;2.20;;;;;;;18.58;49.24;99779.84;10352700;28;20765;-38
2023/08/09 07:26:19;;;;;;;3.20;2.27;;;;;;;18.36;49.64;99769.63;10361756;28;20262;-38
2023/08/09 07:31:22;;;;;;;2.83;2.20;;;;;;;18.75;49.55;99758.25;10359364;28;20242;-38
2023/08/09 07:36:24;;;;;;;2.80;2.20;;;;;;;18.12;50.42;99797.72;10357933;28;20236;-38
2023/08/09 07:41:28;;;;;;;4.40;1.90;;;;;;;18.59;49.82;99720.00;10359834;28;20667;-38
2023/08/09 07:46:30;;;;;;;2.37;1.90;;;;;;;18.29;50.37;99763.53;10361234;28;20221;-38
2023/08/09 07:51:36;;;;;;;2.90;2.17;;;;;;;18.52;50.02;99768.06;10361934;28;20237;-38
2023/08/09 07:56:38;;;;;;;2.10;1.90;;;;;;;18.13;50.55;99835.41;10359474;28;20233;-37
2023/08/09 08:01:40;;;;;;;2.23;2.00;;;;;;;18.54;50.31;99784.09;10356528;28;20315;-38
2023/08/09 08:06:42;;;;;;;2.38;2.10;;;;;;;19.43;48.95;99764.72;10356024;28;20346;-38
2023/08/09 08:11:44;;;;;;;2.47;1.80;;;;;;;19.49;49.00;99780.03;10358419;28;20614;-38
2023/08/09 08:16:46;;;;;;;2.27;1.80;;;;;;;20.41;47.57;99742.72;10354978;28;20284;-38
2023/08/09 08:21:48;;;;;;;2.30;2.05;;;;;;;20.33;47.80;99819.22;10361932;28;20445;-38
2023/08/09 08:26:53;;;;;;;3.47;1.80;;;;;;;19.95;48.49;99791.69;10360280;28;20248;-38
2023/08/09 08:31:55;;;;;;;2.20;1.77;;;;;;;20.20;48.18;99803.25;10356625;28;20229;-37
2023/08/09 08:36:59;;;;;;;2.92;2.03;;;;;;;19.87;47.98;99823.88;10358196;28;20241;-38
2023/08/09 08:42:02;;;;;;;3.30;1.83;;;;;;;19.54;48.94;99831.69;10362338;28;20719;-38
2023/08/09 08:47:05;;;;;;;2.78;2.42;;;;;;;19.17;48.80;99877.38;10356985;28;20741;-38
2023/08/09 08:52:10;;;;;;;3.57;1.70;;;;;;;19.72;48.51;99859.72;10359407;28;20253;-39
2023/08/09 08:57:12;;;;;;;3.60;1.80;;;;;;;19.88;47.81;99839.13;10359672;28;20228;-39
2023/08/09 09:02:15;;;;;;;3.03;1.83;;;;;;;19.84;48.11;99874.06;10354445;28;20260;-38
2023/08/09 09:07:17;;;;;;;3.85;2.30;;;;;;;20.14;47.36;99864.78;10362738;28;20309;-40
2023/08/09 09:12:20;;;;;;;4.38;2.00;;;;;;;20.31;47.46;99868.38;10358296;28;20633;-41
2023/08/09 09:17:22;;;;;;;2.83;1.75;;;;;;;20.60;47.20;99862.81;10352563;28;20320;-37
2023/08/09 09:22:28;;;;;;;4.78;2.03;;;;;;;20.55;47.31;99813.84;10360279;28;20241;-38
2023/08/09 09:27:32;;;;;;;1.92;1.83;;;;;;;20.65;47.13;99805.00;10357787;28;20228;-38
2023/08/09 09:32:33;;;;;;;2.65;1.92;;;;;;;21.60;45.51;99816.47;10359580;28;20347;-40
2023/08/09 09:37:36;;;;;;;3.22;1.80;;;;;;;20.47;47.01;99846.88;10355481;28;20264;-38
2023/08/09 09:42:37;;;;;;;3.35;2.15;;;;;;;20.99;46.86;99829.38;10357859;28;20232;-38
2023/08/09 09:47:39;;;;;;;2.45;2.00;;;;;;;20.26;47.31;99905.50;10354745;28;20495;-38
2023/08/09 09:52:42;;;;;;;4.28;2.28;;;;;;;20.44;47.33;99842.75;10352555;28;20324;-38
2023/08/09 09:57:44;;;;;;;3.08;2.10;;;;;;;20.10;48.11;99909.81;10358211;28;20225;-38
2023/08/09 10:02:48;;;;;;;4.70;2.22;;;;;;;20.38;47.27;99878.25;10358167;28;20241;-42
2023/08/09 10:07:50;;;;;;;4.25;2.35;;;;;;;20.40;48.13;99843.50;10354282;28;20230;-40
2023/08/09 10:12:55;;;;;;;2.13;1.88;;;;;;;20.98;46.68;99795.91;10356326;28;20284;-38
2023/08/09 10:18:05;;;;;;;3.00;2.22;;;;;;;21.09;46.36;99853.16;10351358;28;20645;-38
2023/08/09 10:23:07;;;;;;;2.15;1.90;;;;;;;20.60;47.07;99832.94;10354399;28;20244;-38
2023/08/09 10:28:09;;;;;;;2.22;2.08;;;;;;;21.19;47.27;99805.13;10359283;28;20550;-39
2023/08/09 10:33:10;;;;;;;3.15;2.15;;;;;;;20.27;47.76;99856.34;10352759;28;20229;-38
2023/08/09 10:38:21;;;;;;;2.08;1.77;;;;;;;21.46;46.30;99809.81;10355382;28;20719;-38
2023/08/09 10:43:30;;;;;;;3.97;1.90;;;;;;;20.56;48.21;99826.31;10351249;28;20313;-39
2023/08/09 10:48:31;;;;;;;2.25;1.95;;;;;;;21.49;46.50;99817.47;10359650;28;20236;-38
2023/08/09 10:53:58;;;;;;;3.28;1.70;;;;;;;21.60;46.04;99834.72;10353218;28;20232;-39
2023/08/09 10:59:05;;;;;;;5.15;2.88;;;;;;;21.30;46.76;99802.53;10363669;28;20222;-40
2023/08/09 11:06:30;;;;;;;3.40;2.22;;;;;;;17.89;53.14;99756.06;10469256;27;2022109;-70
2023/08/09 11:11:33;;;;;;;3.38;2.13;;;;;;;18.97;51.81;99777.44;10440316;28;21538;-69
2023/08/09 11:16:34;;;;;;;2.33;1.88;;;;;;;18.79;51.39;99787.38;10507280;28;20243;-70
2023/08/09 11:21:41;;;;;;;2.10;1.95;;;;;;;18.52;52.13;99786.22;10505733;28;20238;-68
2023/08/09 11:26:49;;;;;;;3.00;2.03;;;;;;;19.49;50.78;99749.38;10508643;28;20774;-68
2023/08/09 11:31:53;;;;;;;2.50;1.88;;;;;;;19.27;50.73;99749.28;10505759;28;20740;-69
2023/08/09 11:36:56;;;;;;;3.05;2.22;;;;;;;19.48;50.05;99772.16;10509470;28;20241;-69
2023/08/09 11:41:58;;;;;;;3.40;2.10;;;;;;;19.11;49.39;99784.22;10506373;28;20305;-69
2023/08/09 11:47:01;;;;;;;3.42;2.30;;;;;;;19.78;48.80;99774.59;10505032;28;20722;-69
2023/08/09 11:52:05;;;;;;;2.30;2.10;;;;;;;19.30;49.52;99884.41;10504708;28;20280;-69
2023/08/09 11:57:07;;;;;;;2.20;2.00;;;;;;;19.96;49.55;99817.00;10505484;28;20235;-69
2023/08/09 12:02:09;;;;;;;2.85;2.03;;;;;;;20.11;48.47;99800.94;10504708;28;20329;-69
2023/08/09 12:07:11;;;;;;;2.20;1.98;;;;;;;19.60;48.57;99865.19;10504936;28;20242;-69
2023/08/09 12:12:16;;;;;;;2.50;2.00;;;;;;;20.23;47.79;99836.19;10504555;28;20230;-69
2023/08/09 12:17:28;;;;;;;2.08;1.88;;;;;;;19.42;48.58;99909.63;10480966;28;20785;-69
2023/08/09 12:22:31;;;;;;;2.20;1.90;;;;;;;19.52;48.78;99879.97;10475274;28;20257;-69
2023/08/09 12:27:33;;;;;;;1.70;1.60;;;;;;;19.05;49.31;99950.63;10477814;28;20745;-70
2023/08/09 12:32:36;;;;;;;3.58;2.05;;;;;;;19.25;49.03;99920.41;10478283;28;20649;-69
2023/08/09 12:37:37;;;;;;;2.90;2.00;;;;;;;20.19;48.67;99826.88;10477818;28;20281;-69
2023/08/09 12:42:41;;;;;;;1.92;1.77;;;;;;;19.06;49.94;99894.47;10477663;28;20238;-69
2023/08/09 12:47:43;;;;;;;1.92;1.83;;;;;;;21.59;47.18;99816.72;10474742;28;20270;-69
2023/08/09 12:52:44;;;;;;;2.67;1.98;;;;;;;21.15;47.65;99885.59;10481808;28;20227;-70
2023/08/09 12:57:55;;;;;;;2.15;1.80;;;;;;;20.26;49.48;99835.69;10477500;28;20292;-69
2023/08/09 13:02:57;;;;;;;2.50;1.85;;;;;;;20.37;48.25;99909.22;10477437;28;20695;-69
2023/08/09 13:07:59;;;;;;;2.30;2.08;;;;;;;21.14;48.22;99826.00;10478752;28;20239;-68
2023/08/09 13:13:01;;;;;;;1.75;1.50;;;;;;;19.98;49.17;99842.00;10475841;28;20238;-69
2023/08/09 13:18:03;;;;;;;3.70;2.15;;;;;;;20.07;49.48;99875.81;10479196;28;20292;-69
2023/08/09 13:23:07;;;;;;;2.70;2.10;;;;;;;20.95;47.54;99905.22;10474795;28;20759;-69
2023/08/09 13:28:09;;;;;;;2.33;1.90;;;;;;;20.41;48.51;99910.34;10474710;28;20300;-69
2023/08/09 13:33:12;;;;;;;3.25;1.75;;;;;;;21.05;48.12;99859.13;10477965;28;20223;-69
2023/08/09 13:38:33;;;;;;;1.75;1.65;;;;;;;21.48;48.02;99834.88;10474649;28;20334;-69
2023/08/09 13:43:35;;;;;;;2.10;2.00;;;;;;;20.15;49.26;99930.81;10471827;28;20685;-69
2023/08/09 13:48:37;;;;;;;1.92;1.75;;;;;;;21.11;48.00;99897.28;10473746;28;20372;-68
2023/08/09 13:53:39;;;;;;;2.75;1.65;;;;;;;20.02;48.74;99886.59;10473066;28;20322;-69
2023/08/09 13:58:41;;;;;;;2.33;1.83;;;;;;;21.49;47.94;99827.50;10472585;28;20277;-69
2023/08/09 14:03:43;;;;;;;2.95;1.70;;;;;;;21.13;46.94;99857.03;10476580;28;20247;-69
2023/08/09 14:08:44;;;;;;;2.00;1.50;;;;;;;20.99;47.57;99891.94;10474264;28;20297;-69
2023/08/09 14:13:46;;;;;;;1.77;1.67;;;;;;;22.03;46.32;99834.84;10471379;28;20251;-69
2023/08/09 14:18:48;;;;;;;1.50;1.30;;;;;;;22.26;46.37;99836.38;10475199;28;20227;-69
2023/08/09 14:23:50;;;;;;;1.85;1.55;;;;;;;21.70;46.83;99905.59;10469952;28;20235;-70
2023/08/09 14:28:52;;;;;;;1.83;1.60;;;;;;;22.59;45.03;99865.28;10469282;28;20769;-69
2023/08/09 14:33:54;;;;;;;1.60;1.50;;;;;;;22.02;45.23;99883.06;10472086;28;20222;-69
2023/08/09 14:38:56;;;;;;;2.45;1.58;;;;;;;22.39;44.67;99857.75;10470939;28;20402;-69
2023/08/09 14:43:57;;;;;;;1.67;1.45;;;;;;;22.34;45.00;99885.78;10469476;28;20231;-70
2023/08/09 14:48:59;;;;;;;2.53;1.48;;;;;;;21.72;44.99;99918.97;10472076;28;20330;-71
2023/08/09 14:54:04;;;;;;;1.80;1.60;;;;;;;22.56;44.82;99903.97;10455054;28;20310;-70
2023/08/09 14:59:06;;;;;;;1.40;1.30;;;;;;;21.17;45.07;99916.13;10470715;28;20318;-70
2023/08/09 15:04:14;;;;;;;1.38;1.27;;;;;;;22.07;45.20;99855.88;10465804;28;20239;-67
2023/08/09 15:09:16;;;;;;;1.45;1.35;;;;;;;22.20;44.38;99865.53;10468734;28;20231;-68
2023/08/09 15:14:18;;;;;;;3.42;1.50;;;;;;;21.57;44.94;99895.13;10466580;28;20223;-68
2023/08/09 15:19:20;;;;;;;2.28;1.60;;;;;;;22.94;44.11;99863.81;10468177;28;20334;-68
2023/08/09 15:24:22;;;;;;;1.30;1.20;;;;;;;22.18;44.81;99836.88;10467815;28;20227;-68
2023/08/09 15:29:24;;;;;;;1.45;1.30;;;;;;;24.12;42.57;99798.56;10464724;28;20235;-70
2023/08/09 15:34:26;;;;;;;1.58;1.20;;;;;;;23.38;43.16;99889.94;10470634;28;20280;-70
2023/08/09 15:39:27;;;;;;;1.33;1.20;;;;;;;23.35;43.25;99866.75;10470045;28;20227;-69
2023/08/09 15:44:30;;;;;;;1.48;1.38;;;;;;;22.61;43.93;99840.47;10466474;28;20219;-70
2023/08/09 15:49:32;;;;;;;1.38;1.27;;;;;;;23.71;42.01;99828.59;10470742;28;20230;-69
2023/08/09 15:54:34;;;;;;;2.05;1.38;;;;;;;23.60;42.52;99837.84;10459616;28;20212;-69
2023/08/09 15:59:36;;;;;;;1.00;1.00;;;;;;;23.22;42.73;99848.94;10475260;28;20234;-70
2023/08/09 16:04:38;;;;;;;1.58;1.48;;;;;;;23.47;42.45;99854.75;10476867;28;20709;-69
2023/08/09 16:09:40;;;;;;;2.15;1.10;;;;;;;23.09;42.84;99863.09;10477439;28;20258;-69
2023/08/09 16:14:42;;;;;;;1.25;1.20;;;;;;;23.78;42.43;99815.50;10475851;28;20320;-69
2023/08/09 16:19:43;;;;;;;1.58;1.48;;;;;;;24.22;42.53;99827.00;10476449;28;20231;-70
2023/08/09 16:24:45;;;;;;;2.22;1.58;;;;;;;23.09;43.66;99852.16;10474630;28;20331;-69
2023/08/09 16:29:47;;;;;;;3.25;1.92;;;;;;;23.38;43.70;99844.38;10471028;28;20239;-69
2023/08/09 16:34:49;;;;;;;1.55;1.20;;;;;;;23.18;44.02;99849.75;10474623;28;20285;-68
2023/08/09 16:39:54;;;;;;;1.45;1.33;;;;;;;23.08;43.77;99836.91;10478281;28;20320;-69
2023/08/09 16:44:55;;;;;;;1.27;1.15;;;;;;;23.21;43.27;99850.06;10475533;28;20231;-69
2023/08/09 16:49:59;;;;;;;2.45;1.42;;;;;;;22.95;43.51;99853.72;10470820;28;20297;-69
2023/08/09 16:55:01;;;;;;;1.77;1.67;;;;;;;22.85;43.91;99855.31;10474081;28;20232;-67
2023/08/09 17:00:06;;;;;;;1.58;1.48;;;;;;;23.84;43.49;99786.28;10473177;28;20764;-68
2023/08/09 17:05:09;;;;;;;2.30;1.55;;;;;;;23.57;43.80;99831.03;10474782;28;20408;-68
2023/08/09 17:10:11;;;;;;;3.50;1.38;;;;;;;22.21;44.83;99888.13;10473580;28;20273;-67
2023/08/09 17:15:13;;;;;;;1.50;1.40;;;;;;;23.14;43.95;99815.91;10473627;28;20227;-68
2023/08/09 17:20:15;;;;;;;1.50;1.40;;;;;;;21.84;45.70;99837.13;10469437;28;20770;-67
2023/08/09 17:25:18;;;;;;;1.75;1.65;;;;;;;22.51;44.75;99866.56;10472699;28;20737;-67
2023/08/09 17:30:20;;;;;;;1.55;1.35;;;;;;;24.18;42.83;99788.47;10474655;28;20294;-67
2023/08/09 17:35:24;;;;;;;2.35;1.20;;;;;;;23.75;43.08;99842.53;10476849;28;20235;-68
2023/08/09 17:40:26;;;;;;;2.97;1.40;;;;;;;22.56;44.63;99835.81;10470515;28;20321;-65
2023/08/09 17:45:27;;;;;;;1.40;1.30;;;;;;;22.19;45.31;99863.88;10469992;28;20288;-65
2023/08/09 17:50:29;;;;;;;1.45;1.20;;;;;;;21.82;45.26;99891.03;10469558;28;20227;-65
2023/08/09 17:55:31;;;;;;;1.45;1.35;;;;;;;22.28;44.90;99877.81;10467435;28;20219;-65
2023/08/09 18:00:33;;;;;;;3.78;1.52;;;;;;;23.07;44.52;99816.16;10469521;28;20267;-68
2023/08/09 18:05:35;;;;;;;1.08;1.08;;;;;;;22.18;45.35;99896.81;10465884;28;20279;-67
2023/08/09 18:10:36;;;;;;;1.38;1.27;;;;;;;22.46;45.32;99907.41;10471209;28;20343;-67
2023/08/09 18:15:38;;;;;;;1.60;1.50;;;;;;;23.08;45.03;99851.34;10471103;28;20718;-67
2023/08/09 18:20:40;;;;;;;2.22;1.20;;;;;;;22.23;45.01;99935.03;10471751;28;20250;-69
2023/08/09 18:25:42;;;;;;;2.13;1.30;;;;;;;23.95;43.48;99823.41;10469078;28;20235;-67
2023/08/09 18:30:44;;;;;;;1.30;1.20;;;;;;;24.79;42.04;99918.81;10470201;28;20321;-66
2023/08/09 18:35:47;;;;;;;1.77;1.42;;;;;;;25.04;42.48;99890.56;10454359;28;20224;-67
2023/08/09 18:40:48;;;;;;;1.95;1.40;;;;;;;24.85;42.54;99936.03;10472529;28;20227;-67
2023/08/09 18:45:50;;;;;;;2.70;1.50;;;;;;;24.79;42.57;99948.09;10471606;28;20231;-67
2023/08/09 18:50:53;;;;;;;2.00;1.33;;;;;;;25.26;42.01;99925.00;10469243;28;20235;-66
2023/08/09 18:55:55;;;;;;;1.70;1.58;;;;;;;25.34;42.03;99916.22;10470290;28;20230;-68
2023/08/09 19:00:57;;;;;;;1.75;1.30;;;;;;;24.83;42.82;99955.50;10469801;28;20618;-66
2023/08/09 19:05:59;;;;;;;2.38;1.70;;;;;;;24.52;42.81;99954.66;10465393;28;20261;-64
2023/08/09 19:11:01;;;;;;;2.10;1.30;;;;;;;23.70;44.43;99968.19;10453771;28;20235;-66
2023/08/09 19:16:04;;;;;;;1.60;1.40;;;;;;;23.85;46.18;99869.03;10467546;28;20895;-65
2023/08/09 19:21:07;;;;;;;1.85;1.60;;;;;;;24.99;44.46;99896.03;10466091;28;20229;-67
2023/08/09 19:26:09;;;;;;;3.85;1.55;;;;;;;24.71;44.85;99919.38;10473544;28;20262;-66
2023/08/09 19:31:12;;;;;;;1.60;1.50;;;;;;;24.22;45.83;99939.88;10476360;28;20227;-65
2023/08/09 19:36:13;;;;;;;1.40;1.30;;;;;;;23.84;47.29;99942.00;10477617;28;20238;-65
2023/08/09 19:41:15;;;;;;;3.45;1.63;;;;;;;24.41;45.81;99910.09;10474202;28;20729;-65
2023/08/09 19:46:17;;;;;;;1.70;1.60;;;;;;;22.80;49.05;99925.41;10475941;28;20238;-66
2023/08/09 19:51:19;;;;;;;1.70;1.60;;;;;;;24.33;46.25;99897.78;10476117;28;20316;-66
2023/08/09 19:56:21;;;;;;;3.28;1.65;;;;;;;23.66;47.42;99918.72;10457632;28;20231;-68
2023/08/09 20:01:23;;;;;;;2.00;1.55;;;;;;;23.89;46.44;99924.81;10474092;28;20619;-68
2023/08/09 20:06:25;;;;;;;2.08;1.55;;;;;;;24.48;45.43;99923.50;10470917;28;20239;-72
2023/08/09 20:11:27;;;;;;;2.13;1.92;;;;;;;24.38;45.14;99943.47;10471924;28;20281;-70
2023/08/09 20:16:29;;;;;;;1.80;1.70;;;;;;;20.33;53.61;99944.22;10472687;28;20602;-68
2023/08/09 20:21:33;;;;;;;2.08;1.88;;;;;;;21.87;50.31;99921.84;10471908;28;20243;-68
2023/08/09 20:26:35;;;;;;;2.22;1.70;;;;;;;19.67;54.33;99924.78;10471003;28;20232;-69
2023/08/09 20:31:36;;;;;;;2.03;1.92;;;;;;;19.39;54.94;99918.25;10472388;28;20289;-67
2023/08/09 20:36:38;;;;;;;4.13;1.70;;;;;;;19.78;54.83;99875.03;10469407;28;20837;-68
2023/08/09 20:41:40;;;;;;;2.22;1.90;;;;;;;18.99;56.06;99927.16;10472454;28;20285;-67
2023/08/09 20:46:42;;;;;;;2.80;2.22;;;;;;;19.34;55.23;99931.69;10470264;28;21129;-68
2023/08/09 20:51:44;;;;;;;2.25;2.10;;;;;;;18.55;56.89;99940.19;10468852;28;20741;-68
2023/08/09 20:56:45;;;;;;;2.20;2.00;;;;;;;19.33;54.74;99984.31;10471233;28;20235;-68
2023/08/09 21:01:47;;;;;;;2.45;2.25;;;;;;;19.91;54.15;99937.19;10469597;28;20830;-68
2023/08/09 21:06:49;;;;;;;3.25;2.38;;;;;;;19.11;55.41;100003.88;10469704;28;20236;-68
2023/08/09 21:11:51;;;;;;;2.35;2.15;;;;;;;19.71;54.22;100005.50;10469663;28;20255;-68
2023/08/09 21:16:53;;;;;;;3.00;2.70;;;;;;;19.79;55.36;99941.03;10470172;28;20327;-69
2023/08/09 21:21:55;;;;;;;4.28;2.75;;;;;;;20.88;53.19;99988.88;10472696;28;20322;-69
2023/08/09 21:26:57;;;;;;;4.60;2.60;;;;;;;20.03;54.50;100055.81;10469008;28;20227;-69
2023/08/09 21:32:02;;;;;;;5.65;3.22;;;;;;;19.58;55.92;100051.91;10470225;28;20315;-68
2023/08/09 21:37:04;;;;;;;3.70;2.83;;;;;;;19.33;56.53;100074.69;10474265;28;20246;-68
2023/08/09 21:42:06;;;;;;;3.15;2.88;;;;;;;19.52;55.89;100064.50;10467890;28;20231;-69
2023/08/09 21:47:08;;;;;;;5.53;2.80;;;;;;;20.92;53.06;100036.28;10468858;28;20254;-68
2023/08/09 21:52:09;;;;;;;3.03;2.72;;;;;;;19.50;53.49;100131.78;10471489;28;20234;-69
2023/08/09 21:57:11;;;;;;;3.38;2.45;;;;;;;20.04;51.82;100138.94;10471788;28;20284;-68
2023/08/09 22:02:13;;;;;;;2.33;2.13;;;;;;;19.90;52.56;100068.59;10472248;28;20243;-68
2023/08/09 22:07:15;;;;;;;2.30;2.10;;;;;;;19.72;52.06;100093.19;10471215;28;20227;-68
2023/08/09 22:12:18;;;;;;;2.53;2.33;;;;;;;20.33;50.67;100095.53;10470658;28;20231;-68
2023/08/09 22:17:19;;;;;;;2.42;2.25;;;;;;;20.00;50.46;100105.19;10471858;28;20496;-69
2023/08/09 22:22:22;;;;;;;3.47;2.22;;;;;;;18.97;51.86;100090.06;10470735;28;20315;-69
2023/08/09 22:27:24;;;;;;;2.33;2.13;;;;;;;20.02;48.82;100168.25;10472020;28;22445;-68
2023/08/09 22:32:26;;;;;;;2.45;2.05;;;;;;;20.05;48.10;100205.78;10470585;28;20297;-69
2023/08/09 22:37:29;;;;;;;1.90;1.80;;;;;;;18.91;50.46;100182.34;10471269;28;20242;-68
2023/08/09 22:42:31;;;;;;;1.73;1.63;;;;;;;18.63;50.59;100189.19;10469979;28;20277;-68
2023/08/09 22:47:33;;;;;;;1.95;1.85;;;;;;;18.83;49.86;100203.28;10468446;28;20737;-69
2023/08/09 22:52:35;;;;;;;2.85;2.10;;;;;;;18.96;50.15;100158.09;10471570;28;20246;-68
2023/08/09 22:57:37;;;;;;;2.00;1.90;;;;;;;20.64;47.20;100121.41;10469572;28;20652;-68
2023/08/09 23:02:38;;;;;;;2.30;2.10;;;;;;;19.38;49.30;100123.63;10468093;28;20317;-68
2023/08/09 23:07:40;;;;;;;2.70;2.00;;;;;;;18.92;50.11;100110.78;10467851;28;20246;-69
2023/08/09 23:12:43;;;;;;;2.22;1.90;;;;;;;19.00;49.61;100102.34;10468359;28;20299;-68
2023/08/09 23:17:45;;;;;;;2.20;2.00;;;;;;;19.30;48.16;100170.09;10467626;28;20328;-68
2023/08/09 23:22:47;;;;;;;2.10;2.00;;;;;;;18.82;49.03;100171.81;10466202;28;20262;-68
2023/08/09 23:27:48;;;;;;;2.13;2.03;;;;;;;18.54;48.86;100185.13;10465809;28;20227;-68